sensor_id;sensor_type;location;lat;lon;timestamp;pressure;altitude;pressure_sealevel;temperature;humidity
51849;BME280;38952;51.090;-1.832;2023-02-16T00:01:15;101010.88;;;6.85;98.57
51849;BME280;38952;51.090;-1.832;2023-02-16T00:03:41;101010.88;;;6.85;98.32
51849;BME280;38952;51.090;-1.832;2023-02-16T00:06:07;101022.06;;;6.95;98.33
51849;BME280;38952;51.090;-1.832;2023-02-16T00:08:39;101016.72;;;6.88;98.54
51849;BME280;38952;51.090;-1.832;2023-02-16T00:11:20;101015.00;;;6.94;99.12
51849;BME280;38952;51.090;-1.832;2023-02-16T00:14:10;101020.94;;;7.03;97.86
51849;BME280;38952;51.090;-1.832;2023-02-16T00:16:36;101020.25;;;7.07;98.86
51849;BME280;38952;51.090;-1.832;2023-02-16T00:19:15;100987.34;;;6.97;98.45
51849;BME280;38952;51.090;-1.832;2023-02-16T00:21:44;101001.00;;;7.09;98.45
51849;BME280;38952;51.090;-1.832;2023-02-16T00:24:13;100981.97;;;7.09;98.36
51849;BME280;38952;51.090;-1.832;2023-02-16T00:26:45;101004.50;;;7.28;97.94
51849;BME280;38952;51.090;-1.832;2023-02-16T00:29:33;101002.78;;;7.33;98.58
51849;BME280;38952;51.090;-1.832;2023-02-16T00:32:11;100976.72;;;7.26;98.33
51849;BME280;38952;51.090;-1.832;2023-02-16T00:34:42;100991.34;;;7.43;98.44
51849;BME280;38952;51.090;-1.832;2023-02-16T00:37:13;100959.47;;;7.32;97.71
51849;BME280;38952;51.090;-1.832;2023-02-16T00:39:40;100972.16;;;7.50;98.24
51849;BME280;38952;51.090;-1.832;2023-02-16T00:42:21;100970.31;;;7.50;97.83
51849;BME280;38952;51.090;-1.832;2023-02-16T00:44:56;100959.84;;;7.47;98.12
51849;BME280;38952;51.090;-1.832;2023-02-16T00:47:30;100961.53;;;7.48;97.86
51849;BME280;38952;51.090;-1.832;2023-02-16T00:49:57;100950.63;;;7.48;97.62
51849;BME280;38952;51.090;-1.832;2023-02-16T00:52:33;100935.72;;;7.39;97.44
51849;BME280;38952;51.090;-1.832;2023-02-16T00:55:40;100926.81;;;7.32;97.73
51849;BME280;38952;51.090;-1.832;2023-02-16T01:01:52;100941.63;;;7.36;97.57
51849;BME280;38952;51.090;-1.832;2023-02-16T01:04:39;100904.75;;;7.10;98.13
51849;BME280;38952;51.090;-1.832;2023-02-16T01:17:45;100934.00;;;6.96;98.58
51849;BME280;38952;51.090;-1.832;2023-02-16T01:20:43;100919.38;;;6.78;98.96
51849;BME280;38952;51.090;-1.832;2023-02-16T01:23:24;100878.34;;;6.50;99.67
51849;BME280;38952;51.090;-1.832;2023-02-16T01:26:25;100919.09;;;6.68;99.93
51849;BME280;38952;51.090;-1.832;2023-02-16T01:29:34;100912.38;;;6.71;100.00
51849;BME280;38952;51.090;-1.832;2023-02-16T01:32:38;100900.75;;;6.63;100.00
51849;BME280;38952;51.090;-1.832;2023-02-16T01:35:43;100865.31;;;6.40;100.00
51849;BME280;38952;51.090;-1.832;2023-02-16T01:38:37;100886.66;;;6.55;100.00
51849;BME280;38952;51.090;-1.832;2023-02-16T01:47:37;100885.28;;;6.64;100.00
51849;BME280;38952;51.090;-1.832;2023-02-16T01:59:40;100877.56;;;6.79;100.00
51849;BME280;38952;51.090;-1.832;2023-02-16T02:03:07;100877.56;;;6.79;100.00
51849;BME280;38952;51.090;-1.832;2023-02-16T02:05:53;100853.50;;;6.64;100.00
51849;BME280;38952;51.090;-1.832;2023-02-16T02:11:13;100882.53;;;6.82;100.00
51849;BME280;38952;51.090;-1.832;2023-02-16T02:16:33;100852.53;;;6.59;100.00
51849;BME280;38952;51.090;-1.832;2023-02-16T02:19:01;100873.78;;;6.80;100.00
51849;BME280;38952;51.090;-1.832;2023-02-16T02:22:18;100866.69;;;6.79;100.00
51849;BME280;38952;51.090;-1.832;2023-02-16T02:27:56;100866.84;;;6.96;100.00
51849;BME280;38952;51.090;-1.832;2023-02-16T02:30:51;100828.63;;;6.79;100.00
51849;BME280;38952;51.090;-1.832;2023-02-16T03:02:24;100812.53;;;7.20;100.00
51849;BME280;38952;51.090;-1.832;2023-02-16T03:44:41;100745.00;;;7.29;100.00
51849;BME280;38952;51.090;-1.832;2023-02-16T03:54:34;100746.53;;;7.37;100.00
51849;BME280;38952;51.090;-1.832;2023-02-16T04:04:41;100755.53;;;7.49;100.00
51849;BME280;38952;51.090;-1.832;2023-02-16T04:11:54;100752.59;;;7.50;100.00
51849;BME280;38952;51.090;-1.832;2023-02-16T04:14:54;100770.22;;;7.60;100.00
51849;BME280;38952;51.090;-1.832;2023-02-16T04:18:18;100767.00;;;7.63;100.00
51849;BME280;38952;51.090;-1.832;2023-02-16T04:24:39;100760.84;;;7.56;100.00
51849;BME280;38952;51.090;-1.832;2023-02-16T04:27:53;100736.00;;;7.40;100.00
51849;BME280;38952;51.090;-1.832;2023-02-16T04:31:27;100745.72;;;7.60;100.00
51849;BME280;38952;51.090;-1.832;2023-02-16T04:37:47;100726.19;;;7.63;100.00
51849;BME280;38952;51.090;-1.832;2023-02-16T04:40:16;100722.97;;;7.66;100.00
51849;BME280;38952;51.090;-1.832;2023-02-16T04:42:43;100718.00;;;7.63;100.00
51849;BME280;38952;51.090;-1.832;2023-02-16T04:45:10;100714.72;;;7.61;100.00
51849;BME280;38952;51.090;-1.832;2023-02-16T04:47:43;100715.16;;;7.58;100.00
51849;BME280;38952;51.090;-1.832;2023-02-16T04:50:09;100696.84;;;7.53;100.00
51849;BME280;38952;51.090;-1.832;2023-02-16T04:52:40;100711.16;;;7.48;99.53
51849;BME280;38952;51.090;-1.832;2023-02-16T04:55:09;100692.13;;;7.48;99.18
51849;BME280;38952;51.090;-1.832;2023-02-16T04:57:37;100695.06;;;7.59;98.23
51849;BME280;38952;51.090;-1.832;2023-02-16T05:00:05;100694.97;;;7.54;96.87
51849;BME280;38952;51.090;-1.832;2023-02-16T05:02:32;100707.00;;;7.69;95.92
51849;BME280;38952;51.090;-1.832;2023-02-16T05:04:57;100691.16;;;7.55;95.35
51849;BME280;38952;51.090;-1.832;2023-02-16T05:07:25;100697.69;;;7.54;95.50
51849;BME280;38952;51.090;-1.832;2023-02-16T05:09:50;100707.13;;;7.63;95.35
51849;BME280;38952;51.090;-1.832;2023-02-16T05:12:18;100700.50;;;7.59;95.87
51849;BME280;38952;51.090;-1.832;2023-02-16T05:15:04;100706.41;;;7.56;95.69
51849;BME280;38952;51.090;-1.832;2023-02-16T05:17:30;100706.31;;;7.50;96.38
51849;BME280;38952;51.090;-1.832;2023-02-16T05:19:58;100714.50;;;7.50;97.29
51849;BME280;38952;51.090;-1.832;2023-02-16T05:22:24;100716.13;;;7.51;97.19
51849;BME280;38952;51.090;-1.832;2023-02-16T05:24:52;100712.13;;;7.42;97.49
51849;BME280;38952;51.090;-1.832;2023-02-16T05:27:20;100726.53;;;7.55;98.37
51849;BME280;38952;51.090;-1.832;2023-02-16T05:29:47;100697.91;;;7.40;98.69
51849;BME280;38952;51.090;-1.832;2023-02-16T05:32:12;100705.38;;;7.45;98.28
51849;BME280;38952;51.090;-1.832;2023-02-16T05:34:40;100726.91;;;7.46;99.24
51849;BME280;38952;51.090;-1.832;2023-02-16T05:37:10;100729.16;;;7.49;100.00
51849;BME280;38952;51.090;-1.832;2023-02-16T05:39:39;100727.00;;;7.51;100.00
51849;BME280;38952;51.090;-1.832;2023-02-16T05:42:04;100720.16;;;7.37;100.00
51849;BME280;38952;51.090;-1.832;2023-02-16T05:44:30;100732.94;;;7.48;100.00
51849;BME280;38952;51.090;-1.832;2023-02-16T05:47:00;100708.69;;;7.35;100.00
51849;BME280;38952;51.090;-1.832;2023-02-16T05:49:26;100694.88;;;7.25;100.00
51849;BME280;38952;51.090;-1.832;2023-02-16T05:51:54;100713.66;;;7.38;100.00
51849;BME280;38952;51.090;-1.832;2023-02-16T05:54:19;100705.97;;;7.35;100.00
51849;BME280;38952;51.090;-1.832;2023-02-16T05:56:47;100696.38;;;7.32;100.00
51849;BME280;38952;51.090;-1.832;2023-02-16T05:59:14;100693.09;;;7.30;100.00
51849;BME280;38952;51.090;-1.832;2023-02-16T06:01:40;100678.06;;;7.28;100.00
51849;BME280;38952;51.090;-1.832;2023-02-16T06:04:11;100683.03;;;7.31;100.00
51849;BME280;38952;51.090;-1.832;2023-02-16T06:06:40;100692.94;;;7.37;100.00
51849;BME280;38952;51.090;-1.832;2023-02-16T06:09:07;100674.88;;;7.31;100.00
51849;BME280;38952;51.090;-1.832;2023-02-16T06:11:33;100684.22;;;7.35;100.00
51849;BME280;38952;51.090;-1.832;2023-02-16T06:14:13;100676.41;;;7.27;100.00
51849;BME280;38952;51.090;-1.832;2023-02-16T06:31:11;100687.41;;;7.44;100.00
51849;BME280;38952;51.090;-1.832;2023-02-16T06:54:18;100677.41;;;7.73;100.00
51849;BME280;38952;51.090;-1.832;2023-02-16T06:57:22;100656.72;;;7.60;100.00
51849;BME280;38952;51.090;-1.832;2023-02-16T07:04:13;100686.25;;;7.80;100.00
51849;BME280;38952;51.090;-1.832;2023-02-16T07:10:16;100650.66;;;7.70;100.00
51849;BME280;38952;51.090;-1.832;2023-02-16T07:12:45;100652.88;;;7.73;100.00
51849;BME280;38952;51.090;-1.832;2023-02-16T07:15:43;100688.19;;;7.97;100.00
51849;BME280;38952;51.090;-1.832;2023-02-16T07:18:21;100657.47;;;7.84;100.00
51849;BME280;38952;51.090;-1.832;2023-02-16T07:20:57;100679.91;;;8.03;100.00
51849;BME280;38952;51.090;-1.832;2023-02-16T07:23:55;100688.91;;;8.04;100.00
51849;BME280;38952;51.090;-1.832;2023-02-16T07:26:28;100691.13;;;8.07;100.00
51849;BME280;38952;51.090;-1.832;2023-02-16T07:29:06;100656.63;;;7.96;100.00
51849;BME280;38952;51.090;-1.832;2023-02-16T07:31:31;100664.97;;;8.06;100.00
51849;BME280;38952;51.090;-1.832;2023-02-16T07:33:57;100675.22;;;8.16;100.00
51849;BME280;38952;51.090;-1.832;2023-02-16T07:36:23;100667.06;;;8.16;100.00
51849;BME280;38952;51.090;-1.832;2023-02-16T07:38:49;100670.88;;;8.03;100.00
51849;BME280;38952;51.090;-1.832;2023-02-16T07:41:14;100669.59;;;8.06;100.00
51849;BME280;38952;51.090;-1.832;2023-02-16T07:43:40;100681.41;;;8.11;100.00
51849;BME280;38952;51.090;-1.832;2023-02-16T07:46:07;100652.50;;;8.10;100.00
51849;BME280;38952;51.090;-1.832;2023-02-16T07:48:32;100668.53;;;8.07;100.00
51849;BME280;38952;51.090;-1.832;2023-02-16T07:50:58;100673.34;;;8.16;100.00
51849;BME280;38952;51.090;-1.832;2023-02-16T07:53:25;100689.88;;;8.27;100.00
51849;BME280;38952;51.090;-1.832;2023-02-16T07:55:51;100705.13;;;8.28;100.00
51849;BME280;38952;51.090;-1.832;2023-02-16T07:58:18;100684.91;;;8.24;100.00
51849;BME280;38952;51.090;-1.832;2023-02-16T08:01:06;100693.28;;;8.34;100.00
51849;BME280;38952;51.090;-1.832;2023-02-16T08:03:33;100679.56;;;8.29;100.00
51849;BME280;38952;51.090;-1.832;2023-02-16T08:06:07;100702.72;;;8.43;100.00
51849;BME280;38952;51.090;-1.832;2023-02-16T08:08:33;100701.44;;;8.46;100.00
51849;BME280;38952;51.090;-1.832;2023-02-16T08:10:59;100690.06;;;8.37;100.00
51849;BME280;38952;51.090;-1.832;2023-02-16T08:13:25;100696.06;;;8.51;100.00
51849;BME280;38952;51.090;-1.832;2023-02-16T08:15:50;100707.31;;;8.54;100.00
51849;BME280;38952;51.090;-1.832;2023-02-16T08:18:16;100703.47;;;8.55;100.00
51849;BME280;38952;51.090;-1.832;2023-02-16T08:20:41;100685.50;;;8.54;100.00
51849;BME280;38952;51.090;-1.832;2023-02-16T08:23:07;100699.88;;;8.67;100.00
51849;BME280;38952;51.090;-1.832;2023-02-16T08:25:35;100691.03;;;8.60;100.00
51849;BME280;38952;51.090;-1.832;2023-02-16T08:28:01;100701.53;;;8.68;100.00
51849;BME280;38952;51.090;-1.832;2023-02-16T08:30:26;100669.63;;;8.51;100.00
51849;BME280;38952;51.090;-1.832;2023-02-16T08:32:52;100688.28;;;8.60;100.00
51849;BME280;38952;51.090;-1.832;2023-02-16T08:35:23;100682.84;;;8.60;100.00
51849;BME280;38952;51.090;-1.832;2023-02-16T08:38:03;100701.69;;;8.78;100.00
51849;BME280;38952;51.090;-1.832;2023-02-16T08:41:03;100666.16;;;8.56;100.00
51849;BME280;38952;51.090;-1.832;2023-02-16T08:43:36;100686.00;;;8.68;100.00
51849;BME280;38952;51.090;-1.832;2023-02-16T08:46:07;100706.34;;;8.78;100.00
51849;BME280;38952;51.090;-1.832;2023-02-16T08:48:43;100710.94;;;8.77;100.00
51849;BME280;38952;51.090;-1.832;2023-02-16T08:51:18;100705.75;;;8.93;100.00
51849;BME280;38952;51.090;-1.832;2023-02-16T08:53:58;100664.53;;;8.72;100.00
51849;BME280;38952;51.090;-1.832;2023-02-16T08:56:37;100683.03;;;8.87;100.00
51849;BME280;38952;51.090;-1.832;2023-02-16T08:59:15;100665.75;;;8.81;100.00
51849;BME280;38952;51.090;-1.832;2023-02-16T09:01:44;100689.16;;;8.94;100.00
51849;BME280;38952;51.090;-1.832;2023-02-16T09:04:10;100706.72;;;9.20;100.00
51849;BME280;38952;51.090;-1.832;2023-02-16T09:06:41;100705.72;;;9.26;100.00
51849;BME280;38952;51.090;-1.832;2023-02-16T09:09:07;100704.66;;;9.28;100.00
51849;BME280;38952;51.090;-1.832;2023-02-16T09:11:34;100688.28;;;9.28;100.00
51849;BME280;38952;51.090;-1.832;2023-02-16T09:14:00;100688.94;;;9.35;100.00
51849;BME280;38952;51.090;-1.832;2023-02-16T09:16:28;100695.53;;;9.39;100.00
51849;BME280;38952;51.090;-1.832;2023-02-16T09:18:58;100686.75;;;9.37;100.00
51849;BME280;38952;51.090;-1.832;2023-02-16T09:21:30;100671.41;;;9.31;100.00
51849;BME280;38952;51.090;-1.832;2023-02-16T09:23:57;100710.41;;;9.48;100.00
51849;BME280;38952;51.090;-1.832;2023-02-16T09:26:24;100702.47;;;9.47;100.00
51849;BME280;38952;51.090;-1.832;2023-02-16T09:28:50;100700.31;;;9.49;100.00
51849;BME280;38952;51.090;-1.832;2023-02-16T09:33:42;100681.31;;;9.81;100.00
51849;BME280;38952;51.090;-1.832;2023-02-16T09:36:09;100674.47;;;10.01;100.00
51849;BME280;38952;51.090;-1.832;2023-02-16T09:38:40;100678.59;;;10.03;100.00
51849;BME280;38952;51.090;-1.832;2023-02-16T09:41:10;100679.53;;;10.14;100.00
51849;BME280;38952;51.090;-1.832;2023-02-16T09:44:09;100693.44;;;10.35;100.00
51849;BME280;38952;51.090;-1.832;2023-02-16T09:46:37;100694.31;;;10.40;100.00
51849;BME280;38952;51.090;-1.832;2023-02-16T09:49:03;100703.50;;;10.56;100.00
51849;BME280;38952;51.090;-1.832;2023-02-16T09:51:51;100699.16;;;10.60;100.00
51849;BME280;38952;51.090;-1.832;2023-02-16T09:54:43;100710.19;;;10.71;100.00
51849;BME280;38952;51.090;-1.832;2023-02-16T09:57:22;100714.00;;;10.70;100.00
51849;BME280;38952;51.090;-1.832;2023-02-16T10:00:03;100698.41;;;10.70;100.00
51849;BME280;38952;51.090;-1.832;2023-02-16T10:02:39;100701.53;;;10.84;100.00
51849;BME280;38952;51.090;-1.832;2023-02-16T10:08:14;100712.03;;;10.92;100.00
51849;BME280;38952;51.090;-1.832;2023-02-16T10:10:47;100711.50;;;10.95;100.00
51849;BME280;38952;51.090;-1.832;2023-02-16T10:13:47;100715.38;;;11.05;100.00
51849;BME280;38952;51.090;-1.832;2023-02-16T10:16:33;100706.69;;;11.13;100.00
51849;BME280;38952;51.090;-1.832;2023-02-16T10:19:20;100709.78;;;11.22;100.00
51849;BME280;38952;51.090;-1.832;2023-02-16T10:21:54;100724.88;;;11.34;100.00
51849;BME280;38952;51.090;-1.832;2023-02-16T10:24:20;100716.84;;;11.60;100.00
51849;BME280;38952;51.090;-1.832;2023-02-16T10:27:13;100710.34;;;11.77;100.00
51849;BME280;38952;51.090;-1.832;2023-02-16T10:29:40;100724.47;;;12.01;100.00
51849;BME280;38952;51.090;-1.832;2023-02-16T10:32:27;100722.06;;;12.30;100.00
51849;BME280;38952;51.090;-1.832;2023-02-16T10:35:41;100724.34;;;12.95;100.00
51849;BME280;38952;51.090;-1.832;2023-02-16T10:38:28;100740.78;;;13.52;100.00
51849;BME280;38952;51.090;-1.832;2023-02-16T10:44:22;100731.19;;;13.34;99.49
51849;BME280;38952;51.090;-1.832;2023-02-16T10:46:58;100739.72;;;13.32;99.37
51849;BME280;38952;51.090;-1.832;2023-02-16T10:49:25;100716.09;;;13.21;98.80
51849;BME280;38952;51.090;-1.832;2023-02-16T10:51:52;100735.59;;;13.45;98.69
51849;BME280;38952;51.090;-1.832;2023-02-16T10:54:25;100744.88;;;13.70;96.71
51849;BME280;38952;51.090;-1.832;2023-02-16T10:56:56;100720.66;;;13.82;95.81
51849;BME280;38952;51.090;-1.832;2023-02-16T10:59:24;100737.34;;;14.01;93.98
51849;BME280;38952;51.090;-1.832;2023-02-16T11:02:12;100736.81;;;13.99;94.02
51849;BME280;38952;51.090;-1.832;2023-02-16T11:04:42;100758.81;;;13.94;93.35
51849;BME280;38952;51.090;-1.832;2023-02-16T11:07:12;100757.97;;;13.99;93.68
51849;BME280;38952;51.090;-1.832;2023-02-16T11:09:39;100757.75;;;13.85;93.11
51849;BME280;38952;51.090;-1.832;2023-02-16T11:12:37;100756.63;;;13.91;92.28
51849;BME280;38952;51.090;-1.832;2023-02-16T11:15:22;100762.03;;;14.17;90.63
51849;BME280;38952;51.090;-1.832;2023-02-16T11:17:56;100770.91;;;13.98;89.23
51849;BME280;38952;51.090;-1.832;2023-02-16T11:23:25;100774.84;;;13.09;93.04
51849;BME280;38952;51.090;-1.832;2023-02-16T11:28:38;100761.34;;;12.56;96.18
51849;BME280;38952;51.090;-1.832;2023-02-16T11:31:18;100784.19;;;12.78;97.22
51849;BME280;38952;51.090;-1.832;2023-02-16T11:34:28;100793.25;;;12.99;96.77
51849;BME280;38952;51.090;-1.832;2023-02-16T11:36:50;100787.78;;;13.45;95.38
51849;BME280;38952;51.090;-1.832;2023-02-16T11:39:23;100795.16;;;13.70;92.46
51849;BME280;38952;51.090;-1.832;2023-02-16T11:41:55;100789.38;;;13.87;89.37
51849;BME280;38952;51.090;-1.832;2023-02-16T11:47:05;100788.53;;;13.87;88.58
51849;BME280;38952;51.090;-1.832;2023-02-16T11:49:36;100789.06;;;13.94;88.92
51849;BME280;38952;51.090;-1.832;2023-02-16T11:52:22;100773.94;;;13.96;87.32
51849;BME280;38952;51.090;-1.832;2023-02-16T11:54:53;100763.78;;;13.92;86.67
51849;BME280;38952;51.090;-1.832;2023-02-16T11:57:31;100750.34;;;13.80;85.75
51849;BME280;38952;51.090;-1.832;2023-02-16T12:00:00;100746.72;;;13.90;86.64
51849;BME280;38952;51.090;-1.832;2023-02-16T12:05:15;100741.25;;;14.90;83.40
51849;BME280;38952;51.090;-1.832;2023-02-16T12:08:02;100733.63;;;15.94;78.71
51849;BME280;38952;51.090;-1.832;2023-02-16T12:10:41;100724.13;;;18.30;71.46
51849;BME280;38952;51.090;-1.832;2023-02-16T12:15:56;100721.41;;;22.19;57.19
51849;BME280;38952;51.090;-1.832;2023-02-16T12:21:40;100720.66;;;22.94;49.73
51849;BME280;38952;51.090;-1.832;2023-02-16T12:26:51;100713.78;;;22.58;48.87
51849;BME280;38952;51.090;-1.832;2023-02-16T12:45:43;100692.66;;;16.63;67.74
51849;BME280;38952;51.090;-1.832;2023-02-16T12:48:42;100700.72;;;16.60;66.63
51849;BME280;38952;51.090;-1.832;2023-02-16T12:51:37;100709.25;;;16.44;67.51
51849;BME280;38952;51.090;-1.832;2023-02-16T12:57:28;100683.34;;;15.53;70.03
51849;BME280;38952;51.090;-1.832;2023-02-16T13:04:17;100695.72;;;15.56;69.96
51849;BME280;38952;51.090;-1.832;2023-02-16T13:07:04;100692.59;;;15.14;71.01
51849;BME280;38952;51.090;-1.832;2023-02-16T13:09:42;100707.56;;;14.98;71.62
51849;BME280;38952;51.090;-1.832;2023-02-16T13:12:30;100701.13;;;14.83;72.82
51849;BME280;38952;51.090;-1.832;2023-02-16T13:17:40;100712.56;;;15.25;72.75
51849;BME280;38952;51.090;-1.832;2023-02-16T13:20:15;100712.50;;;15.60;70.74
51849;BME280;38952;51.090;-1.832;2023-02-16T13:39:21;100722.41;;;14.18;76.30
51849;BME280;38952;51.090;-1.832;2023-02-16T13:44:23;100719.00;;;13.86;77.76
51849;BME280;38952;51.090;-1.832;2023-02-16T13:46:51;100720.94;;;13.75;78.73
51849;BME280;38952;51.090;-1.832;2023-02-16T13:51:53;100723.03;;;14.04;78.60
51849;BME280;38952;51.090;-1.832;2023-02-16T13:54:37;100710.66;;;14.07;78.22
51849;BME280;38952;51.090;-1.832;2023-02-16T13:57:10;100719.13;;;14.21;77.81
51849;BME280;38952;51.090;-1.832;2023-02-16T14:02:10;100707.00;;;14.22;77.80
51849;BME280;38952;51.090;-1.832;2023-02-16T14:12:29;100698.28;;;15.47;72.26
51849;BME280;38952;51.090;-1.832;2023-02-16T14:15:00;100705.38;;;15.00;72.77
51849;BME280;38952;51.090;-1.832;2023-02-16T14:17:29;100689.78;;;14.45;74.48
51849;BME280;38952;51.090;-1.832;2023-02-16T14:20:26;100698.72;;;14.27;75.98
51849;BME280;38952;51.090;-1.832;2023-02-16T14:22:55;100692.78;;;14.09;76.04
51849;BME280;38952;51.090;-1.832;2023-02-16T14:25:36;100691.16;;;14.03;76.90
51849;BME280;38952;51.090;-1.832;2023-02-16T14:29:00;100690.66;;;13.91;76.52
51849;BME280;38952;51.090;-1.832;2023-02-16T14:31:11;100693.94;;;13.93;77.34
51849;BME280;38952;51.090;-1.832;2023-02-16T14:33:44;100691.06;;;14.19;76.97
51849;BME280;38952;51.090;-1.832;2023-02-16T14:36:20;100699.81;;;14.26;76.66
51849;BME280;38952;51.090;-1.832;2023-02-16T14:38:54;100692.16;;;14.23;75.26
51849;BME280;38952;51.090;-1.832;2023-02-16T14:41:32;100706.25;;;14.11;76.20
51849;BME280;38952;51.090;-1.832;2023-02-16T14:55:15;100707.72;;;13.88;76.98
51849;BME280;38952;51.090;-1.832;2023-02-16T14:58:05;100707.66;;;13.98;77.17
51849;BME280;38952;51.090;-1.832;2023-02-16T15:00:43;100709.41;;;14.34;76.04
51849;BME280;38952;51.090;-1.832;2023-02-16T15:03:24;100706.94;;;14.32;75.10
51849;BME280;38952;51.090;-1.832;2023-02-16T15:05:59;100706.34;;;14.40;75.63
51849;BME280;38952;51.090;-1.832;2023-02-16T15:08:30;100714.06;;;15.12;74.25
51849;BME280;38952;51.090;-1.832;2023-02-16T15:11:12;100720.22;;;15.58;71.66
51849;BME280;38952;51.090;-1.832;2023-02-16T15:13:38;100718.47;;;16.53;68.42
51849;BME280;38952;51.090;-1.832;2023-02-16T15:16:05;100714.78;;;16.44;66.91
51849;BME280;38952;51.090;-1.832;2023-02-16T15:18:36;100710.50;;;15.90;66.79
51849;BME280;38952;51.090;-1.832;2023-02-16T15:21:02;100717.16;;;15.35;68.72
51849;BME280;38952;51.090;-1.832;2023-02-16T15:23:32;100713.75;;;14.84;68.23
51849;BME280;38952;51.090;-1.832;2023-02-16T15:26:01;100722.56;;;14.42;70.72
51849;BME280;38952;51.090;-1.832;2023-02-16T15:28:34;100730.19;;;14.05;71.31
51849;BME280;38952;51.090;-1.832;2023-02-16T15:31:13;100720.94;;;13.75;72.60
51849;BME280;38952;51.090;-1.832;2023-02-16T15:33:51;100714.44;;;13.51;73.99
51849;BME280;38952;51.090;-1.832;2023-02-16T15:36:18;100711.16;;;13.23;74.98
51849;BME280;38952;51.090;-1.832;2023-02-16T15:41:25;100736.97;;;12.86;77.84
51849;BME280;38952;51.090;-1.832;2023-02-16T15:43:51;100727.34;;;12.73;78.58
51849;BME280;38952;51.090;-1.832;2023-02-16T15:46:27;100739.72;;;12.70;79.70
51849;BME280;38952;51.090;-1.832;2023-02-16T15:48:52;100730.91;;;12.68;79.80
51849;BME280;38952;51.090;-1.832;2023-02-16T15:51:27;100744.13;;;12.87;79.96
51849;BME280;38952;51.090;-1.832;2023-02-16T15:54:04;100732.84;;;12.93;79.32
51849;BME280;38952;51.090;-1.832;2023-02-16T15:56:45;100737.00;;;13.01;79.80
51849;BME280;38952;51.090;-1.832;2023-02-16T16:01:47;100744.13;;;12.97;78.99
51849;BME280;38952;51.090;-1.832;2023-02-16T16:04:21;100743.81;;;12.83;79.52
51849;BME280;38952;51.090;-1.832;2023-02-16T16:06:50;100755.63;;;12.63;80.14
51849;BME280;38952;51.090;-1.832;2023-02-16T16:09:23;100742.44;;;12.55;81.51
51849;BME280;38952;51.090;-1.832;2023-02-16T16:11:50;100745.16;;;12.55;81.43
51849;BME280;38952;51.090;-1.832;2023-02-16T16:14:20;100729.25;;;12.42;81.66
51849;BME280;38952;51.090;-1.832;2023-02-16T16:16:46;100745.69;;;12.47;82.50
51849;BME280;38952;51.090;-1.832;2023-02-16T16:19:16;100739.38;;;12.36;82.54
51849;BME280;38952;51.090;-1.832;2023-02-16T16:21:53;100744.63;;;12.43;82.76
51849;BME280;38952;51.090;-1.832;2023-02-16T16:27:00;100768.19;;;12.54;83.25
51849;BME280;38952;51.090;-1.832;2023-02-16T16:29:29;100756.09;;;12.39;83.00
51849;BME280;38952;51.090;-1.832;2023-02-16T16:31:56;100753.91;;;12.31;83.01
51849;BME280;38952;51.090;-1.832;2023-02-16T16:34:39;100754.94;;;12.20;83.58
51849;BME280;38952;51.090;-1.832;2023-02-16T16:37:16;100759.31;;;12.11;84.31
51849;BME280;38952;51.090;-1.832;2023-02-16T16:39:58;100754.91;;;12.10;84.42
51849;BME280;38952;51.090;-1.832;2023-02-16T16:42:24;100768.88;;;12.08;85.40
51849;BME280;38952;51.090;-1.832;2023-02-16T16:45:36;100757.63;;;11.99;84.94
51849;BME280;38952;51.090;-1.832;2023-02-16T16:50:40;100765.72;;;11.84;85.51
51849;BME280;38952;51.090;-1.832;2023-02-16T16:53:40;100765.94;;;11.72;86.76
51849;BME280;38952;51.090;-1.832;2023-02-16T16:56:12;100776.00;;;11.61;86.35
51849;BME280;38952;51.090;-1.832;2023-02-16T16:58:37;100751.78;;;11.38;87.22
51849;BME280;38952;51.090;-1.832;2023-02-16T17:01:03;100760.19;;;11.26;87.64
51849;BME280;38952;51.090;-1.832;2023-02-16T17:03:29;100763.66;;;11.21;88.51
51849;BME280;38952;51.090;-1.832;2023-02-16T17:05:54;100767.13;;;11.06;88.39
51849;BME280;38952;51.090;-1.832;2023-02-16T17:08:21;100791.47;;;11.03;88.93
51849;BME280;38952;51.090;-1.832;2023-02-16T17:10:47;100782.56;;;10.90;90.00
51849;BME280;38952;51.090;-1.832;2023-02-16T17:13:16;100783.66;;;10.89;90.15
51849;BME280;38952;51.090;-1.832;2023-02-16T17:15:49;100789.09;;;10.84;90.57
51849;BME280;38952;51.090;-1.832;2023-02-16T17:18:17;100796.97;;;10.80;90.78
51849;BME280;38952;51.090;-1.832;2023-02-16T17:20:44;100798.28;;;10.73;91.28
51849;BME280;38952;51.090;-1.832;2023-02-16T17:23:11;100797.59;;;10.60;92.30
51849;BME280;38952;51.090;-1.832;2023-02-16T17:25:37;100790.88;;;10.46;92.53
51849;BME280;38952;51.090;-1.832;2023-02-16T17:28:03;100809.50;;;10.49;93.20
51849;BME280;38952;51.090;-1.832;2023-02-16T17:30:30;100799.34;;;10.44;93.66
51849;BME280;38952;51.090;-1.832;2023-02-16T17:32:55;100811.44;;;10.48;93.93
51849;BME280;38952;51.090;-1.832;2023-02-16T17:35:43;100792.06;;;10.33;93.85
51849;BME280;38952;51.090;-1.832;2023-02-16T17:38:11;100795.72;;;10.39;94.13
51849;BME280;38952;51.090;-1.832;2023-02-16T17:40:40;100804.69;;;10.34;95.36
51849;BME280;38952;51.090;-1.832;2023-02-16T17:43:12;100794.94;;;10.21;95.50
51849;BME280;38952;51.090;-1.832;2023-02-16T17:45:46;100810.19;;;10.17;95.76
51849;BME280;38952;51.090;-1.832;2023-02-16T17:48:23;100780.94;;;9.95;95.86
51849;BME280;38952;51.090;-1.832;2023-02-16T17:50:50;100783.63;;;9.90;96.23
51849;BME280;38952;51.090;-1.832;2023-02-16T17:53:19;100795.56;;;9.84;97.38
51849;BME280;38952;51.090;-1.832;2023-02-16T17:55:47;100801.06;;;9.89;97.82
51849;BME280;38952;51.090;-1.832;2023-02-16T17:58:13;100798.72;;;9.76;97.99
51849;BME280;38952;51.090;-1.832;2023-02-16T18:00:42;100811.94;;;9.84;98.33
51849;BME280;38952;51.090;-1.832;2023-02-16T18:03:08;100821.22;;;9.83;98.42
51849;BME280;38952;51.090;-1.832;2023-02-16T18:05:34;100821.47;;;9.82;98.52